• Join FlightAware (Why Join?)
  • Login
  • US Flag 
05:07PM EDT


 

Airport Tracker/Info


-or-


 

Live Flight TrackerFlight Track Log ✈ N62119 ✈ 02-Oct-2013 ✈ KRZL - KTEL

Flight Track Log - Related Links

Times and Time Zones

All times are in EDT time to prevent confusion due to time zone crossing. See the N62119 flight status page for this flight to view local times or setup timezone preferences in your user account.

Time Position Orientation Groundspeed Altitude Reporting Facility
EDT Latitude Longitude Course Direction KTS MPH feet Rate Location/Type
06:43PM 40.8661 -87.1581 173° South 135 155 4,200  Level Chicago Center
06:44PM 40.8531 -87.1553 171° South 136 157 4,700 1,140 Climbing Chicago Center
06:44PM 40.8303 -87.1483 167° South 144 166 5,000 300 Climbing Chicago Center
06:44PM 40.8167 -87.1433 164° South 143 165 5,000  Level Chicago Center
06:45PM 40.7808 -87.1339 169° South 193 222 5,000  Level Chicago Center
06:45PM 40.7653 -87.1283 165° South 168 193 5,000 -120 Level Chicago Center
06:46PM 40.7292 -87.1192 169° South 186 214 4,900 -120 Descending Chicago Center
06:46PM 40.7142 -87.1139 165° South 185 213 4,900  Level Chicago Center
06:47PM 40.6797 -87.1047 169° South 184 212 4,900 60 Level Chicago Center
06:47PM 40.6650 -87.1003 167° South 183 211 5,000  Climbing Chicago Center
06:48PM 40.6281 -87.0903 168° South 184 212 4,900 -120 Descending Chicago Center
06:49PM 40.6504 -87.1309 173° South  Level Estimated
06:49PM 40.6092 -87.0844 167° South 183 211 4,900  Level Chicago Center
06:49PM 40.5806 -87.0761 168° South 183 211 4,900  Level Chicago Center
06:50PM 40.5594 -87.0694 167° South 183 211 4,900  Level Chicago Center
06:50PM 40.5289 -87.0644 173° South 181 208 4,900  Level Chicago Center
06:51PM 40.5100 -87.0594 169° South 180 207 4,900  Level Chicago Center
06:51PM 40.4769 -87.0581 178° South 182 209 4,900  Level Chicago Center
06:52PM 40.4600 -87.0531 167° South 181 208 4,900  Level Chicago Center
06:52PM 40.4272 -87.0492 175° South 183 211 4,900  Level Chicago Center
06:53PM 40.4094 -87.0458 172° South 183 211 4,900  Level Chicago Center
06:53PM 40.3753 -87.0428 176° South 182 209 4,900  Level Chicago Center
06:54PM 40.3503 -87.0369 170° South 180 207 4,900  Level Chicago Center
06:54PM 40.3278 -87.0342 175° South 180 207 4,900  Level Chicago Center
06:55PM 40.3008 -87.0286 171° South 179 206 4,900  Level Chicago Center
06:55PM 40.2758 -87.0281 179° South 178 205 4,900  Level Chicago Center
06:56PM 40.2514 -87.0214 168° South 179 206 4,900  Level Chicago Center
06:57PM 40.2017 -87.0144 174° South 180 207 4,900  Level Chicago Center
06:58PM 40.1519 -87.0064 173° South 180 207 4,900  Level Chicago Center
06:59PM 40.0911 -86.9975 174° South 182 209 4,900  Level Chicago Center
07:00PM 40.0511 -86.9917 174° South 181 208 4,900  Level Indianapolis Center
07:01PM 40.0006 -86.9836 173° South 182 209 4,900  Level Indianapolis Center
07:02PM 39.9394 -86.9747 174° South 184 212 4,900  Level Indianapolis Center
07:03PM 39.8892 -86.9675 174° South 184 212 4,900  Level Indianapolis Center
07:04PM 39.8378 -86.9589 173° South 185 213 4,900  Level Indianapolis Center
07:05PM 39.7867 -86.9514 174° South 185 213 4,900  Level Indianapolis Center
07:06PM 39.7367 -86.9431 173° South 183 211 4,900  Level Indianapolis Center
07:07PM 39.6858 -86.9353 173° South 184 212 4,900  Level Indianapolis Center
07:08PM 39.6256 -86.9264 174° South 183 211 4,900  Level Indianapolis Center
07:09PM 39.5753 -86.9206 175° South 182 209 4,900  Level Indianapolis Center
07:10PM 39.5250 -86.9122 173° South 182 209 4,900  Level Indianapolis Center
07:11PM 39.4750 -86.9039 173° South 182 209 4,900  Level Indianapolis Center
07:12PM 39.4244 -86.8969 174° South 183 211 4,900  Level Indianapolis Center
07:13PM 39.3742 -86.8894 173° South 183 211 4,900  Level Indianapolis Center
07:14PM 39.3142 -86.8800 173° South 183 211 4,900  Level Indianapolis Center
07:15PM 39.2628 -86.8725 174° South 185 213 4,900  Level Indianapolis Center
07:16PM 39.2122 -86.8647 173° South 185 213 5,000  Climbing Indianapolis Center
07:17PM 39.1619 -86.8575 174° South 184 212 4,900 -60 Descending Indianapolis Center
07:18PM 39.1108 -86.8506 174° South 184 212 4,900  Level Indianapolis Center
07:19PM 39.0600 -86.8428 173° South 183 211 4,900  Level Indianapolis Center
07:20PM 39.0003 -86.8342 174° South 180 207 5,000  Climbing Indianapolis Center
07:21PM 38.9508 -86.8269 174° South 178 205 4,900 -60 Descending Indianapolis Center
07:22PM 38.9003 -86.8189 173° South 180 207 4,900  Level Indianapolis Center
07:24PM 38.8500 -86.8122 174° South 181 208 4,900  Level Indianapolis Center
07:25PM 38.7997 -86.8047 173° South 180 207 4,900  Level Indianapolis Center
07:26PM 38.7489 -86.7969 173° South 182 209 4,900  Level Indianapolis Center
07:27PM 38.6975 -86.7900 174° South 183 211 4,900  Level Indianapolis Center
07:28PM 38.6467 -86.7822 173° South 183 211 4,900  Level Indianapolis Center
07:29PM 38.5836 -86.7731 174° South 186 214 5,000  Climbing Indianapolis Center
07:30PM 38.5328 -86.7656 173° South 185 213 4,900 -60 Descending Indianapolis Center
07:31PM 38.4811 -86.7581 174° South 185 213 4,900  Level Indianapolis Center
07:32PM 38.4297 -86.7517 174° South 184 212 4,900 -180 Level Indianapolis Center
07:33PM 38.3789 -86.7447 174° South 183 211 4,600 -240 Descending Indianapolis Center
07:34PM 38.3306 -86.7381 174° South 177 204 4,500 -300 Descending Indianapolis Center
07:35PM 38.2839 -86.7297 172° South 171 197 4,000 -360 Descending Indianapolis Center
07:36PM 38.2367 -86.7239 174° South 170 196 3,800 -240 Descending Indianapolis Center
07:37PM 38.1914 -86.7172 173° South 166 191 3,600 -420 Descending Indianapolis Center
07:38PM 38.1447 -86.7108 174° South 165 190 3,000 -540 Descending Indianapolis Center
07:39PM 38.0953 -86.7036 173° South 171 197 2,500 -540 Descending Indianapolis Center